Terminal Aerodrome Forecast
Issued by NWS Grand Junction, CO

Home | Current Version | Previous Version | Text Only | Print | Product List | Glossary On
Versions: 1 2 3 4 5 6 7 8 9 10 11 12 13 14 15 16 17 18 19 20 21 22 23 24 25 26 27 28 29 30 31 32 33 34 35 36 37 38 39 40 41
000
FTUS45 KGJT 181733
TAFGJT
TAF
KGJT 181733Z 1818/1918 33006KT P6SM BKN010 BKN016 OVC023
      TEMPO 1818/1820 -SHRA BKN016 OVC030
     FM182000 34005KT P6SM BKN020 OVC040
      TEMPO 1820/1824 -SHRA BKN028 OVC040
     FM190000 33004KT P6SM SCT025 BKN050
     FM190200 02004KT P6SM FEW020 BKN050
     FM190700 10003KT 4SM BR BKN020=

USA.gov is the U.S. government's official web portal to all federal, state and local government web resources and services.